Time;durP1;ratioP1;P1;durP2;ratioP2;P2;SDS_P1;SDS_P2;PMS_P1;PMS_P2;Temp;Humidity;BMP_temperature;BMP_pressure;BME280_temperature;BME280_humidity;BME280_pressure;Samples;Min_cycle;Max_cycle;Signal;HPM_P1;HPM_P2
2022/03/12 00:00:28;;;;;;;10.27;8.13;;;4.90;55.50;;;;;;5044035;28;20226;-84
2022/03/12 00:02:55;;;;;;;10.68;7.82;;;4.90;55.60;;;;;;5050530;28;20208;-83
2022/03/12 00:05:22;;;;;;;8.85;6.45;;;4.90;55.70;;;;;;5057610;28;20215;-84
2022/03/12 00:07:51;;;;;;;9.18;6.30;;;4.80;55.70;;;;;;5045569;28;20269;-82
2022/03/12 00:10:19;;;;;;;10.15;7.15;;;4.80;55.70;;;;;;5044252;28;20260;-84
2022/03/12 00:12:46;;;;;;;13.65;7.05;;;4.80;56.00;;;;;;5049419;28;20267;-85
2022/03/12 00:15:14;;;;;;;11.15;7.15;;;4.90;56.00;;;;;;5044065;28;20197;-84
2022/03/12 00:17:43;;;;;;;10.98;7.80;;;4.90;56.00;;;;;;5051079;28;20196;-84
2022/03/12 00:20:13;;;;;;;12.70;7.90;;;4.70;55.90;;;;;;5039739;28;20316;-84
2022/03/12 00:22:46;;;;;;;11.07;8.23;;;4.70;56.00;;;;;;5040012;28;20641;-84
2022/03/12 00:25:19;;;;;;;9.93;7.50;;;4.70;56.30;;;;;;5038134;28;20212;-84
2022/03/12 00:27:46;;;;;;;9.27;7.05;;;4.60;56.30;;;;;;5036622;28;20266;-84
2022/03/12 00:30:19;;;;;;;10.48;7.82;;;4.60;56.40;;;;;;5035353;28;20284;-85
2022/03/12 00:32:46;;;;;;;8.75;7.65;;;4.50;56.40;;;;;;5039533;28;20184;-85
2022/03/12 00:35:15;;;;;;;12.75;9.60;;;4.50;56.30;;;;;;5040705;28;20649;-85
2022/03/12 00:37:42;;;;;;;9.52;6.68;;;4.50;56.20;;;;;;5044596;28;20197;-83
2022/03/12 00:40:10;;;;;;;9.70;7.00;;;4.60;56.30;;;;;;5047971;28;20255;-85
2022/03/12 00:42:38;;;;;;;8.77;6.82;;;4.60;56.30;;;;;;5056133;28;20206;-84
2022/03/12 00:45:07;;;;;;;12.02;8.10;;;4.60;56.40;;;;;;5043989;28;20208;-84
2022/03/12 00:47:34;;;;;;;12.45;7.93;;;4.50;56.40;;;;;;5041958;28;20653;-84
2022/03/12 00:50:01;;;;;;;10.43;7.60;;;4.50;56.40;;;;;;5055924;28;20195;-85
2022/03/12 00:52:28;;;;;;;11.85;6.65;;;4.50;56.20;;;;;;5057530;28;20216;-84
2022/03/12 00:54:55;;;;;;;12.50;7.30;;;4.50;56.20;;;;;;5059641;28;20200;-83
2022/03/12 00:57:22;;;;;;;10.60;6.85;;;4.50;56.00;;;;;;5059649;28;20176;-84
2022/03/12 00:59:56;;;;;;;8.27;6.65;;;4.40;56.00;;;;;;5060022;28;20208;-83
2022/03/12 01:02:23;;;;;;;11.63;7.15;;;4.40;56.10;;;;;;5052580;28;20196;-84
2022/03/12 01:04:50;;;;;;;11.15;7.78;;;4.40;56.10;;;;;;5038881;28;20314;-84
2022/03/12 01:07:18;;;;;;;8.77;6.47;;;4.30;56.20;;;;;;5039688;28;20300;-84
2022/03/12 01:09:45;;;;;;;8.55;6.78;;;4.30;56.20;;;;;;5039746;28;20185;-85
2022/03/12 01:12:12;;;;;;;12.52;8.10;;;4.30;56.30;;;;;;5039684;28;20248;-85
2022/03/12 01:14:41;;;;;;;11.15;7.43;;;4.20;56.20;;;;;;5039821;28;20189;-84
2022/03/12 01:17:10;;;;;;;11.85;7.32;;;4.30;56.40;;;;;;5039328;28;20249;-84
2022/03/12 01:19:38;;;;;;;15.32;8.07;;;4.30;56.50;;;;;;5038744;28;20213;-83
2022/03/12 01:22:18;;;;;;;9.75;8.68;;;4.20;56.50;;;;;;5037347;28;20243;-83
2022/03/12 01:24:45;;;;;;;9.80;7.40;;;4.20;56.60;;;;;;5035053;28;20312;-84
2022/03/12 01:27:11;;;;;;;12.07;6.90;;;4.20;56.40;;;;;;5031572;28;20263;-84
2022/03/12 01:29:38;;;;;;;11.65;7.25;;;4.20;56.50;;;;;;5030943;28;20204;-84
2022/03/12 01:32:07;;;;;;;9.82;6.57;;;4.10;57.10;;;;;;5033188;28;20254;-85
2022/03/12 01:34:35;;;;;;;8.77;6.75;;;4.10;56.60;;;;;;5054116;28;20275;-84
2022/03/12 01:37:02;;;;;;;11.75;7.68;;;4.10;56.60;;;;;;5050277;28;20661;-85
2022/03/12 01:39:29;;;;;;;12.07;7.18;;;4.10;56.80;;;;;;5060158;28;20374;-83
2022/03/12 01:41:57;;;;;;;9.93;7.78;;;4.10;56.90;;;;;;5043636;28;20224;-84
2022/03/12 01:44:24;;;;;;;10.25;7.45;;;4.00;56.90;;;;;;5050512;28;20223;-83
2022/03/12 01:46:51;;;;;;;9.52;7.40;;;4.10;57.10;;;;;;5041173;28;20317;-84
2022/03/12 01:49:20;;;;;;;10.65;6.78;;;4.00;57.00;;;;;;5039813;28;20227;-83
2022/03/12 01:51:51;;;;;;;14.40;8.32;;;3.80;56.90;;;;;;5045456;28;20307;-84
2022/03/12 01:54:21;;;;;;;14.98;8.60;;;3.90;57.10;;;;;;5032528;28;20197;-83
2022/03/12 01:56:48;;;;;;;11.00;7.50;;;3.90;57.20;;;;;;5043032;28;20204;-84
2022/03/12 01:59:16;;;;;;;11.20;7.85;;;3.90;57.20;;;;;;5036700;28;20232;-84
2022/03/12 02:01:43;;;;;;;10.00;7.07;;;3.90;57.20;;;;;;5042372;28;20260;-85
2022/03/12 02:04:11;;;;;;;7.20;5.82;;;3.90;57.40;;;;;;5036254;28;20200;-85
2022/03/12 02:06:41;;;;;;;8.23;6.78;;;3.80;57.40;;;;;;5057705;28;20210;-84
2022/03/12 02:09:14;;;;;;;17.60;7.60;;;3.80;57.40;;;;;;5042010;28;20204;-85
2022/03/12 02:11:43;;;;;;;9.18;7.03;;;3.80;57.40;;;;;;5035862;28;20242;-83
2022/03/12 02:14:13;;;;;;;11.20;6.80;;;3.80;57.40;;;;;;5029187;28;20235;-84
2022/03/12 02:16:47;;;;;;;10.60;7.13;;;3.80;57.30;;;;;;5037081;28;20237;-84
2022/03/12 02:19:13;;;;;;;10.07;6.68;;;3.80;57.40;;;;;;5044343;28;20196;-84
2022/03/12 02:21:51;;;;;;;11.73;6.85;;;3.80;57.40;;;;;;5040916;28;20225;-84
2022/03/12 02:24:21;;;;;;;8.18;7.10;;;3.80;57.30;;;;;;5048460;28;20200;-83
2022/03/12 02:26:49;;;;;;;11.52;6.95;;;3.70;57.30;;;;;;5047284;28;20219;-84
2022/03/12 02:29:20;;;;;;;8.93;7.63;;;3.80;57.40;;;;;;5048383;28;20263;-85
2022/03/12 02:31:49;;;;;;;7.68;5.85;;;3.70;57.50;;;;;;5049166;28;20319;-83
2022/03/12 02:34:21;;;;;;;9.80;6.72;;;3.70;57.40;;;;;;5047617;28;20251;-83
2022/03/12 02:36:49;;;;;;;10.50;6.65;;;3.70;57.40;;;;;;5057632;28;20188;-84
2022/03/12 02:39:17;;;;;;;17.10;7.20;;;3.60;57.20;;;;;;5042630;28;20270;-84
2022/03/12 02:41:46;;;;;;;8.50;6.00;;;3.70;57.50;;;;;;5055372;28;20258;-84
2022/03/12 02:44:18;;;;;;;10.63;5.93;;;3.70;57.60;;;;;;5032161;28;20217;-83
2022/03/12 02:47:11;;;;;;;7.75;6.65;;;3.80;57.60;;;;;;5024125;28;20241;-85
2022/03/12 02:49:42;;;;;;;8.90;6.40;;;3.70;57.50;;;;;;5024999;28;20217;-84
2022/03/12 02:52:09;;;;;;;9.80;5.72;;;3.70;57.50;;;;;;5024526;28;20226;-85
2022/03/12 02:54:36;;;;;;;15.30;8.55;;;3.60;57.60;;;;;;5024725;28;20568;-84
2022/03/12 02:57:04;;;;;;;8.93;6.50;;;3.60;57.60;;;;;;5030634;28;20204;-83
2022/03/12 02:59:33;;;;;;;8.95;5.75;;;3.60;57.70;;;;;;5043437;28;20275;-84
2022/03/12 03:02:03;;;;;;;11.60;6.20;;;3.60;57.60;;;;;;5035853;28;20223;-85
2022/03/12 03:04:34;;;;;;;8.27;6.45;;;3.60;57.60;;;;;;5037490;28;20621;-84
2022/03/12 03:07:02;;;;;;;9.95;6.40;;;3.60;57.60;;;;;;5040859;28;20205;-83
2022/03/12 03:09:29;;;;;;;11.57;6.72;;;3.60;57.70;;;;;;5034325;28;20217;-83
2022/03/12 03:11:57;;;;;;;14.60;6.45;;;3.50;57.60;;;;;;5044339;28;20228;-83
2022/03/12 03:14:27;;;;;;;10.43;7.00;;;3.50;57.60;;;;;;5050158;28;20191;-84
2022/03/12 03:16:54;;;;;;;9.18;6.75;;;3.50;57.30;;;;;;5052660;28;20248;-82
2022/03/12 03:19:25;;;;;;;9.90;6.72;;;3.50;57.40;;;;;;5047535;28;20231;-85
2022/03/12 03:21:54;;;;;;;12.27;6.95;;;3.50;57.50;;;;;;5039722;28;20270;-84
2022/03/12 03:24:21;;;;;;;8.23;6.00;;;3.50;57.40;;;;;;5045119;28;20241;-84
2022/03/12 03:26:54;;;;;;;9.23;6.78;;;3.60;57.50;;;;;;5053073;28;20191;-85
2022/03/12 03:29:21;;;;;;;7.80;6.50;;;3.50;57.40;;;;;;5062676;28;20196;-84
2022/03/12 03:31:50;;;;;;;8.48;6.65;;;3.50;57.20;;;;;;5045164;28;20227;-84
2022/03/12 03:34:18;;;;;;;8.30;6.25;;;3.40;57.20;;;;;;5047678;28;20219;-84
2022/03/12 03:36:46;;;;;;;10.63;7.00;;;3.40;57.30;;;;;;5057318;28;20208;-85
2022/03/12 03:39:13;;;;;;;10.25;6.65;;;3.40;57.30;;;;;;5039581;28;20192;-83
2022/03/12 03:41:40;;;;;;;11.60;7.20;;;3.40;57.40;;;;;;5061269;28;20227;-85
2022/03/12 03:44:07;;;;;;;8.75;6.38;;;3.50;57.50;;;;;;5064136;28;20182;-84
2022/03/12 03:46:35;;;;;;;8.40;7.03;;;3.30;58.10;;;;;;5056255;28;20204;-84
2022/03/12 03:49:11;;;;;;;9.75;6.13;;;3.30;57.40;;;;;;5048696;28;20281;-84
2022/03/12 03:51:43;;;;;;;7.55;5.75;;;3.30;57.20;;;;;;5063960;28;20234;-83
2022/03/12 03:54:10;;;;;;;6.85;6.15;;;3.30;57.20;;;;;;5063570;28;20184;-83
2022/03/12 03:56:38;;;;;;;9.40;5.47;;;3.30;57.10;;;;;;5042624;28;20205;-85
2022/03/12 03:59:05;;;;;;;8.93;7.28;;;3.30;57.00;;;;;;5038264;28;20843;-84
2022/03/12 04:01:32;;;;;;;9.70;6.32;;;3.30;57.00;;;;;;5056125;28;20220;-84
2022/03/12 04:03:59;;;;;;;9.18;5.90;;;3.30;57.00;;;;;;5043950;28;20209;-83
2022/03/12 04:06:27;;;;;;;11.13;7.13;;;3.20;57.00;;;;;;5054519;28;20283;-84
2022/03/12 04:08:55;;;;;;;8.18;4.95;;;3.20;57.00;;;;;;5047006;28;20238;-83
2022/03/12 04:11:24;;;;;;;12.00;6.47;;;3.20;57.10;;;;;;5040270;28;20223;-84
2022/03/12 04:13:53;;;;;;;12.25;6.63;;;3.40;57.20;;;;;;5038028;28;20219;-84
2022/03/12 04:16:21;;;;;;;7.40;4.75;;;3.20;57.10;;;;;;5047670;28;20195;-86
2022/03/12 04:18:49;;;;;;;9.85;6.75;;;3.20;56.80;;;;;;5049486;28;20242;-85
2022/03/12 04:21:18;;;;;;;7.55;6.05;;;3.30;56.80;;;;;;5051857;28;20331;-83
2022/03/12 04:23:48;;;;;;;10.90;6.13;;;3.30;56.80;;;;;;5051329;28;20187;-82
2022/03/12 04:26:16;;;;;;;9.40;5.75;;;3.30;56.70;;;;;;5042351;28;20219;-85
2022/03/12 04:28:43;;;;;;;11.40;5.88;;;3.30;56.50;;;;;;5047796;28;20211;-83
2022/03/12 04:31:10;;;;;;;8.43;5.25;;;3.30;56.30;;;;;;5052065;28;20230;-82
2022/03/12 04:33:40;;;;;;;11.90;6.18;;;3.40;56.20;;;;;;5054914;28;20199;-84
2022/03/12 04:36:09;;;;;;;8.00;5.72;;;3.30;56.10;;;;;;5053565;28;20260;-82
2022/03/12 04:38:37;;;;;;;10.02;5.93;;;3.30;56.00;;;;;;5062976;28;20188;-83
2022/03/12 04:41:08;;;;;;;7.43;4.97;;;3.30;56.00;;;;;;5063872;28;20246;-83
2022/03/12 04:43:35;;;;;;;10.40;5.45;;;3.30;56.00;;;;;;5063920;28;20239;-81
2022/03/12 04:46:02;;;;;;;13.15;5.60;;;3.30;56.10;;;;;;5063880;28;20252;-83
2022/03/12 04:48:30;;;;;;;9.48;5.78;;;3.30;56.10;;;;;;5060237;28;20196;-81
2022/03/12 04:51:07;;;;;;;6.43;4.97;;;3.40;56.20;;;;;;5044516;28;20211;-84
2022/03/12 04:53:34;;;;;;;11.38;5.30;;;3.30;56.00;;;;;;5046341;28;20255;-81
2022/03/12 04:56:01;;;;;;;8.15;5.47;;;3.30;56.00;;;;;;5060454;28;20193;-83
2022/03/12 04:58:30;;;;;;;10.43;6.00;;;3.30;56.30;;;;;;5060517;28;20195;-83
2022/03/12 05:00:57;;;;;;;9.75;6.60;;;3.20;56.40;;;;;;5058703;28;20268;-84
2022/03/12 05:03:25;;;;;;;7.78;5.97;;;3.20;56.30;;;;;;5049488;28;20208;-84
2022/03/12 05:05:53;;;;;;;11.00;6.57;;;3.20;56.40;;;;;;5030657;28;20207;-84
2022/03/12 05:08:23;;;;;;;9.27;6.32;;;3.20;56.50;;;;;;5041582;28;20208;-84
2022/03/12 05:10:52;;;;;;;12.40;6.00;;;3.30;56.50;;;;;;5043816;28;20266;-84
2022/03/12 05:13:23;;;;;;;8.13;5.30;;;3.20;56.50;;;;;;5042417;28;20220;-84
2022/03/12 05:15:52;;;;;;;9.30;6.07;;;3.20;56.60;;;;;;5047428;28;20227;-82
2022/03/12 05:18:21;;;;;;;8.85;5.80;;;3.30;56.60;;;;;;5039767;28;20207;-84
2022/03/12 05:20:49;;;;;;;9.82;6.07;;;3.20;56.40;;;;;;5043992;28;20258;-85
2022/03/12 05:23:17;;;;;;;9.07;5.15;;;3.10;56.40;;;;;;5043128;28;20239;-85
2022/03/12 05:25:46;;;;;;;11.50;6.80;;;3.10;56.60;;;;;;5036257;28;20687;-84
2022/03/12 05:28:15;;;;;;;7.10;5.95;;;3.10;56.70;;;;;;5048939;28;20206;-84
2022/03/12 05:30:44;;;;;;;10.23;5.90;;;3.10;56.80;;;;;;5052016;28;20220;-83
2022/03/12 05:33:12;;;;;;;9.43;6.00;;;3.20;56.90;;;;;;5051112;28;20217;-84
2022/03/12 05:35:40;;;;;;;9.90;5.88;;;3.10;57.00;;;;;;5057114;28;20818;-81
2022/03/12 05:38:07;;;;;;;10.77;6.72;;;3.10;56.90;;;;;;5051157;28;20190;-82
2022/03/12 05:40:38;;;;;;;12.50;6.10;;;3.10;57.10;;;;;;5054142;28;20216;-83
2022/03/12 05:43:07;;;;;;;12.02;5.70;;;3.20;57.10;;;;;;5054238;28;20213;-82
2022/03/12 05:45:34;;;;;;;6.47;5.00;;;3.10;57.00;;;;;;5049453;28;20181;-84
2022/03/12 05:48:01;;;;;;;6.72;5.82;;;2.90;57.00;;;;;;5049687;28;20219;-83
2022/03/12 05:50:30;;;;;;;6.60;5.05;;;3.10;57.20;;;;;;5056056;28;20206;-83
2022/03/12 05:52:57;;;;;;;8.30;5.05;;;3.10;57.10;;;;;;5050800;28;20254;-83
2022/03/12 05:55:25;;;;;;;9.20;6.28;;;3.10;57.00;;;;;;5044776;28;20201;-83
2022/03/12 05:57:52;;;;;;;6.75;5.43;;;3.10;56.80;;;;;;5041769;28;20234;-83
2022/03/12 06:00:20;;;;;;;8.65;5.35;;;3.10;56.80;;;;;;5047114;28;20274;-84
2022/03/12 06:02:51;;;;;;;9.57;6.25;;;3.10;56.70;;;;;;5038836;28;20228;-86
2022/03/12 06:05:18;;;;;;;8.43;5.90;;;3.30;57.00;;;;;;5038799;28;20210;-85
2022/03/12 06:07:47;;;;;;;8.35;6.10;;;3.20;56.90;;;;;;5037806;28;20638;-83
2022/03/12 06:10:15;;;;;;;8.80;5.32;;;3.20;57.00;;;;;;5042018;28;20252;-84
2022/03/12 06:12:43;;;;;;;8.80;6.40;;;3.20;56.80;;;;;;5041495;28;20247;-84
2022/03/12 06:15:16;;;;;;;17.45;6.55;;;3.20;56.80;;;;;;5042454;28;20211;-83
2022/03/12 06:17:45;;;;;;;14.25;6.00;;;3.40;56.80;;;;;;5043309;28;20212;-84
2022/03/12 06:20:14;;;;;;;13.20;6.40;;;3.20;56.80;;;;;;5037840;28;20222;-85
2022/03/12 06:22:42;;;;;;;8.75;5.53;;;3.20;56.90;;;;;;5035693;28;20612;-84
2022/03/12 06:25:13;;;;;;;6.63;5.22;;;3.30;56.90;;;;;;5034922;28;20215;-86
2022/03/12 06:27:42;;;;;;;7.55;5.15;;;3.40;56.80;;;;;;5032546;28;20664;-83
2022/03/12 06:30:13;;;;;;;9.38;5.53;;;3.40;56.50;;;;;;5036375;28;20666;-84
2022/03/12 06:32:42;;;;;;;16.90;7.57;;;3.40;56.60;;;;;;5033236;28;20200;-82
2022/03/12 06:35:10;;;;;;;8.48;6.13;;;3.30;56.40;;;;;;5032826;28;20257;-84
2022/03/12 06:37:38;;;;;;;10.82;6.40;;;3.40;56.70;;;;;;5036753;28;20515;-85
2022/03/12 06:40:06;;;;;;;11.40;5.80;;;3.40;56.60;;;;;;5035681;28;20204;-85
2022/03/12 06:42:36;;;;;;;9.15;6.00;;;3.40;56.60;;;;;;5038190;28;20784;-84
2022/03/12 06:45:08;;;;;;;7.55;5.57;;;3.20;56.90;;;;;;5036705;28;20281;-83
2022/03/12 06:47:38;;;;;;;8.75;5.65;;;3.50;56.50;;;;;;5039186;28;20208;-84
2022/03/12 06:50:08;;;;;;;7.60;5.13;;;3.50;56.40;;;;;;5039607;28;20205;-84
2022/03/12 06:52:35;;;;;;;6.35;5.30;;;3.60;56.50;;;;;;5035698;28;20216;-83
2022/03/12 06:55:03;;;;;;;6.95;4.75;;;3.60;56.20;;;;;;5039980;28;20208;-84
2022/03/12 06:57:30;;;;;;;8.73;5.32;;;3.70;56.20;;;;;;5040705;28;20230;-84
2022/03/12 06:59:58;;;;;;;10.40;6.47;;;3.70;55.90;;;;;;5035267;28;20208;-84
2022/03/12 07:02:26;;;;;;;7.00;5.70;;;3.80;55.90;;;;;;5032370;28;20251;-84
2022/03/12 07:04:53;;;;;;;9.52;5.80;;;3.80;56.00;;;;;;5024684;28;20213;-84
2022/03/12 07:07:20;;;;;;;9.18;6.28;;;4.00;56.00;;;;;;5030084;28;20216;-85
2022/03/12 07:09:47;;;;;;;8.30;5.93;;;4.10;58.20;;;;;;5035258;28;20207;-83
2022/03/12 07:12:14;;;;;;;7.22;4.65;;;4.50;56.60;;;;;;5032424;28;20216;-85
2022/03/12 07:14:41;;;;;;;8.52;5.45;;;4.60;55.40;;;;;;5036897;28;20204;-85
2022/03/12 07:17:10;;;;;;;10.70;5.82;;;5.30;54.60;;;;;;5035987;28;20197;-84
2022/03/12 07:19:37;;;;;;;8.25;5.55;;;6.00;53.80;;;;;;5032768;28;20217;-82
2022/03/12 07:22:05;;;;;;;9.27;5.93;;;6.30;52.60;;;;;;5039542;28;20309;-86
2022/03/12 07:24:33;;;;;;;5.45;4.95;;;6.70;51.70;;;;;;5039962;28;20243;-85
2022/03/12 07:27:00;;;;;;;9.20;5.70;;;7.20;51.10;;;;;;5039089;28;20231;-84
2022/03/12 07:29:29;;;;;;;7.22;4.80;;;7.70;50.10;;;;;;5044464;28;20822;-85
2022/03/12 07:31:57;;;;;;;7.65;5.28;;;8.10;49.30;;;;;;5024062;28;20236;-83
2022/03/12 07:34:27;;;;;;;9.90;6.18;;;8.60;48.60;;;;;;5028134;28;20554;-87
2022/03/12 07:36:54;;;;;;;7.85;5.90;;;9.30;47.10;;;;;;5041519;28;20294;-85
2022/03/12 07:39:25;;;;;;;7.05;6.15;;;9.70;46.40;;;;;;5039849;28;20200;-85
2022/03/12 07:41:54;;;;;;;9.18;6.20;;;10.20;44.90;;;;;;5034116;28;20672;-84
2022/03/12 07:44:23;;;;;;;7.70;5.95;;;10.60;44.10;;;;;;5041741;28;20544;-87
2022/03/12 07:46:50;;;;;;;8.70;5.90;;;11.30;43.30;;;;;;5043458;28;20219;-84
2022/03/12 07:49:17;;;;;;;6.55;5.43;;;11.80;42.50;;;;;;5045123;28;20212;-85
2022/03/12 07:51:45;;;;;;;8.55;5.55;;;12.10;41.50;;;;;;5051892;28;20234;-82
2022/03/12 07:54:15;;;;;;;10.00;6.60;;;12.20;41.50;;;;;;5051917;28;20204;-84
2022/03/12 07:57:10;;;;;;;8.98;6.25;;;12.50;40.60;;;;;;5037262;28;20199;-83
2022/03/12 07:59:38;;;;;;;6.90;5.68;;;12.50;40.10;;;;;;5037888;28;20195;-83
2022/03/12 08:02:06;;;;;;;7.30;5.18;;;12.90;40.40;;;;;;5037669;28;20232;-84
2022/03/12 08:04:35;;;;;;;6.43;5.22;;;13.10;39.70;;;;;;5037152;28;20248;-83
2022/03/12 08:07:05;;;;;;;7.00;5.57;;;13.30;40.20;;;;;;5036665;28;20193;-83
2022/03/12 08:09:33;;;;;;;6.70;5.60;;;13.40;39.30;;;;;;5037840;28;20208;-85
2022/03/12 08:12:01;;;;;;;8.48;5.63;;;13.10;38.70;;;;;;5037234;28;20233;-84
2022/03/12 08:14:32;;;;;;;7.45;5.82;;;12.90;39.30;;;;;;5037023;28;20185;-87
2022/03/12 08:16:59;;;;;;;9.25;5.78;;;13.30;39.10;;;;;;5037254;28;20185;-87
2022/03/12 08:19:26;;;;;;;10.60;6.00;;;13.10;38.70;;;;;;5037057;28;20224;-84
2022/03/12 08:21:57;;;;;;;8.13;5.45;;;13.70;39.10;;;;;;5036196;28;20217;-87
2022/03/12 08:24:26;;;;;;;7.03;5.93;;;13.70;38.30;;;;;;5059667;22;20246;-71
2022/03/12 08:26:53;;;;;;;8.13;5.68;;;13.50;38.70;;;;;;5053902;28;20567;-76
2022/03/12 08:29:20;;;;;;;5.85;5.10;;;13.70;38.60;;;;;;5064078;28;20235;-72
2022/03/12 08:31:47;;;;;;;8.80;5.28;;;14.20;39.10;;;;;;5065090;28;20225;-73
2022/03/12 08:34:15;;;;;;;8.00;6.35;;;14.40;38.10;;;;;;5066237;28;20614;-70
2022/03/12 08:36:56;;;;;;;8.05;5.40;;;14.10;38.60;;;;;;5062145;28;20203;-75
2022/03/12 08:39:23;;;;;;;9.52;6.03;;;14.40;38.50;;;;;;5057242;28;20307;-76
2022/03/12 08:42:09;;;;;;;7.40;5.85;;;14.40;38.00;;;;;;5057469;28;20239;-73
2022/03/12 08:44:37;;;;;;;7.43;5.57;;;14.30;37.80;;;;;;5053855;28;20810;-74
2022/03/12 08:47:19;;;;;;;8.07;5.60;;;14.30;37.90;;;;;;5048708;28;20218;-75
2022/03/12 08:49:46;;;;;;;7.30;5.40;;;14.90;38.20;;;;;;5052084;28;20198;-74
2022/03/12 08:52:17;;;;;;;9.77;6.00;;;15.50;38.10;;;;;;5056631;28;20241;-71
2022/03/12 08:54:44;;;;;;;8.73;5.70;;;16.00;37.10;;;;;;5060797;28;20935;-71
2022/03/12 08:57:20;;;;;;;7.70;6.43;;;16.30;36.90;;;;;;5045919;28;20431;-77
2022/03/12 08:59:47;;;;;;;6.00;5.13;;;16.60;36.30;;;;;;5057584;28;20532;-72
2022/03/12 09:02:15;;;;;;;8.30;5.43;;;15.60;34.90;;;;;;5062839;28;20997;-73
2022/03/12 09:04:43;;;;;;;9.10;5.83;;;16.10;36.20;;;;;;5058168;28;20528;-72
2022/03/12 09:07:10;;;;;;;8.37;5.70;;;16.90;36.20;;;;;;5056510;28;21082;-73
2022/03/12 09:09:37;;;;;;;8.53;5.93;;;16.80;35.50;;;;;;5042535;28;20533;-70
2022/03/12 09:12:08;;;;;;;7.83;5.67;;;16.70;35.40;;;;;;5049130;28;20901;-72
2022/03/12 09:14:36;;;;;;;8.43;5.37;;;16.70;35.00;;;;;;5046163;28;20462;-72
2022/03/12 09:17:04;;;;;;;7.13;6.03;;;16.60;35.00;;;;;;5049851;28;20492;-73
2022/03/12 09:19:32;;;;;;;7.27;5.70;;;16.60;35.30;;;;;;5042409;28;20474;-73
2022/03/12 09:22:02;;;;;;;7.50;6.13;;;17.30;35.50;;;;;;5056693;28;20522;-72
2022/03/12 09:24:31;;;;;;;8.40;4.63;;;17.90;34.90;;;;;;5054743;28;20513;-73
2022/03/12 09:26:59;;;;;;;8.63;6.37;;;17.90;34.30;;;;;;5061931;28;20454;-71
2022/03/12 09:29:27;;;;;;;10.97;5.60;;;17.50;33.50;;;;;;5054912;28;20504;-71
2022/03/12 09:31:55;;;;;;;8.50;6.30;;;17.50;34.00;;;;;;5054112;28;20466;-69
2022/03/12 09:34:22;;;;;;;8.03;6.03;;;17.60;34.20;;;;;;5044226;28;20458;-71
2022/03/12 09:36:49;;;;;;;6.17;5.00;;;17.40;33.90;;;;;;5049535;28;20539;-71
2022/03/12 09:39:16;;;;;;;11.70;5.73;;;17.30;34.40;;;;;;5049006;28;20443;-72
2022/03/12 09:41:44;;;;;;;7.10;4.87;;;17.10;34.50;;;;;;5049801;28;20542;-71
2022/03/12 09:44:11;;;;;;;8.50;6.10;;;16.60;34.10;;;;;;5055027;28;20482;-71
2022/03/12 09:46:38;;;;;;;7.70;5.90;;;17.00;34.80;;;;;;5030424;28;20526;-71
2022/03/12 09:49:11;;;;;;;9.27;6.10;;;16.70;35.00;;;;;;5040362;28;20515;-70
2022/03/12 09:51:40;;;;;;;6.47;5.37;;;17.30;35.20;;;;;;5053012;28;20975;-71
2022/03/12 09:54:08;;;;;;;9.53;5.60;;;16.90;34.70;;;;;;5046212;28;20454;-72
2022/03/12 09:56:35;;;;;;;8.27;5.93;;;16.60;34.80;;;;;;5050618;28;20476;-71
2022/03/12 09:59:02;;;;;;;7.20;5.70;;;16.80;35.20;;;;;;5050350;28;20549;-70
2022/03/12 10:01:29;;;;;;;8.33;5.80;;;16.60;35.30;;;;;;5040190;28;20525;-71
2022/03/12 10:03:56;;;;;;;6.60;5.90;;;16.50;35.60;;;;;;5047974;28;20560;-72
2022/03/12 10:06:25;;;;;;;6.40;5.80;;;16.60;35.60;;;;;;5042121;28;20940;-72
2022/03/12 10:08:53;;;;;;;7.23;5.73;;;16.70;35.80;;;;;;5039424;28;20454;-70
2022/03/12 10:11:22;;;;;;;9.63;6.20;;;16.50;36.00;;;;;;5047344;28;20492;-70
2022/03/12 10:13:49;;;;;;;9.23;5.65;;;16.00;35.90;;;;;;5046319;28;20866;-72
2022/03/12 10:16:18;;;;;;;11.70;6.57;;;16.00;36.30;;;;;;5042284;28;20541;-71
2022/03/12 10:18:45;;;;;;;9.90;6.30;;;16.30;36.50;;;;;;5052890;28;20460;-72
2022/03/12 10:21:13;;;;;;;9.73;6.10;;;16.10;37.10;;;;;;5050648;28;20571;-71
2022/03/12 10:23:41;;;;;;;9.73;7.00;;;16.40;36.70;;;;;;5039924;28;21021;-72
2022/03/12 10:26:10;;;;;;;8.17;5.70;;;16.50;36.70;;;;;;5052209;28;20923;-74
2022/03/12 10:28:36;;;;;;;7.57;6.77;;;16.20;36.20;;;;;;5051439;28;20918;-72
2022/03/12 10:31:05;;;;;;;17.20;6.70;;;15.80;36.90;;;;;;5043653;28;20474;-71
2022/03/12 10:33:33;;;;;;;9.90;6.87;;;15.60;37.40;;;;;;5045403;28;20455;-69
2022/03/12 10:36:10;;;;;;;9.80;6.43;;;16.10;38.40;;;;;;5047545;28;20450;-71
2022/03/12 10:38:41;;;;;;;6.63;5.90;;;16.20;37.50;;;;;;5040892;28;20476;-70
2022/03/12 10:41:09;;;;;;;10.20;7.13;;;16.10;37.70;;;;;;5040307;28;20211;-72
2022/03/12 10:43:48;;;;;;;10.03;6.80;;;15.80;38.00;;;;;;5035151;28;20523;-72
2022/03/12 10:46:23;;;;;;;10.98;6.78;;;15.50;38.40;;;;;;5044179;28;20475;-72
2022/03/12 10:48:56;;;;;;;8.18;5.97;;;15.40;39.10;;;;;;5040606;28;20238;-73
2022/03/12 10:51:24;;;;;;;9.52;6.20;;;14.90;39.30;;;;;;5038499;28;20215;-74
2022/03/12 10:53:59;;;;;;;9.27;6.50;;;14.30;40.30;;;;;;5043338;28;20203;-70
2022/03/12 10:56:42;;;;;;;10.63;6.65;;;13.90;41.10;;;;;;5051354;28;21451;-73
2022/03/12 10:59:15;;;;;;;10.63;6.60;;;13.50;42.20;;;;;;5045797;28;20284;-74
2022/03/12 11:01:49;;;;;;;6.97;5.90;;;13.50;42.80;;;;;;5042500;28;20232;-75
2022/03/12 11:04:22;;;;;;;7.95;7.10;;;13.40;42.90;;;;;;5043918;28;20218;-74
2022/03/12 11:06:51;;;;;;;9.02;5.97;;;13.20;43.30;;;;;;5036646;28;20207;-75
2022/03/12 11:09:33;;;;;;;7.35;5.70;;;12.90;44.00;;;;;;5039243;28;20630;-73
2022/03/12 11:12:01;;;;;;;7.60;6.32;;;13.10;44.50;;;;;;5044743;28;20236;-74
2022/03/12 11:14:31;;;;;;;8.77;6.55;;;13.00;44.20;;;;;;5042324;28;20603;-72
2022/03/12 11:17:00;;;;;;;9.52;5.90;;;13.10;44.40;;;;;;5047183;28;20236;-72
2022/03/12 11:19:39;;;;;;;8.88;6.60;;;13.10;44.60;;;;;;5047753;28;20204;-73
2022/03/12 11:22:12;;;;;;;8.90;6.15;;;13.10;47.00;;;;;;5046398;28;20272;-72
2022/03/12 11:24:52;;;;;;;11.02;6.82;;;13.30;46.40;;;;;;5044919;28;20246;-72
2022/03/12 11:27:31;;;;;;;9.25;6.57;;;13.30;46.20;;;;;;5031875;28;20279;-75
2022/03/12 11:30:08;;;;;;;7.88;6.35;;;13.40;45.60;;;;;;5041274;28;20290;-73
2022/03/12 11:32:36;;;;;;;11.00;5.60;;;13.40;46.50;;;;;;5033455;28;20239;-73
2022/03/12 11:35:08;;;;;;;13.18;7.20;;;13.20;44.90;;;;;;5033721;28;20219;-75
2022/03/12 11:37:36;;;;;;;12.07;7.28;;;13.50;47.20;;;;;;5029697;28;20677;-73
2022/03/12 11:40:11;;;;;;;10.20;6.53;;;13.50;46.90;;;;;;5027692;28;20257;-76
2022/03/12 11:42:39;;;;;;;8.50;5.95;;;13.60;46.20;;;;;;5028097;28;20231;-77
2022/03/12 11:45:15;;;;;;;7.68;6.78;;;13.40;45.50;;;;;;5028506;28;20573;-73
2022/03/12 11:47:44;;;;;;;7.82;6.63;;;13.40;46.20;;;;;;5030399;28;20223;-75
2022/03/12 11:50:16;;;;;;;12.05;6.55;;;13.30;46.90;;;;;;5030271;28;20587;-72
2022/03/12 11:52:44;;;;;;;8.57;6.07;;;13.20;47.10;;;;;;5026779;28;20234;-75
2022/03/12 11:55:18;;;;;;;13.70;7.13;;;13.40;47.50;;;;;;5029920;28;20204;-75
2022/03/12 11:57:48;;;;;;;12.88;7.45;;;13.50;47.40;;;;;;5027251;28;20204;-74
2022/03/12 12:00:23;;;;;;;8.85;6.97;;;13.50;47.40;;;;;;5028688;28;20211;-74
2022/03/12 12:02:52;;;;;;;8.07;6.28;;;13.40;47.60;;;;;;5033942;28;20231;-75
2022/03/12 12:05:30;;;;;;;11.15;6.20;;;13.30;47.70;;;;;;5038591;28;20219;-73
2022/03/12 12:07:58;;;;;;;10.50;7.15;;;13.30;48.80;;;;;;5034096;28;20275;-75
2022/03/12 12:10:29;;;;;;;8.23;6.32;;;13.30;47.90;;;;;;5033801;28;20199;-75
2022/03/12 12:12:58;;;;;;;10.57;6.78;;;13.20;48.60;;;;;;5035916;28;20231;-75
2022/03/12 12:15:29;;;;;;;8.25;6.13;;;13.30;48.30;;;;;;5036360;28;20239;-76
2022/03/12 12:17:57;;;;;;;9.90;7.18;;;13.40;48.20;;;;;;5037101;28;20229;-74
2022/03/12 12:20:24;;;;;;;10.70;6.47;;;13.20;48.00;;;;;;5037472;28;20204;-76
2022/03/12 12:22:52;;;;;;;13.00;7.75;;;13.30;48.40;;;;;;5038353;28;20457;-72
2022/03/12 12:25:19;;;;;;;10.30;7.30;;;13.20;48.70;;;;;;5034792;28;20235;-79
2022/03/12 12:27:50;;;;;;;9.52;6.88;;;13.20;48.50;;;;;;5032948;28;20767;-73
2022/03/12 12:30:28;;;;;;;8.55;6.63;;;13.10;48.50;;;;;;5032991;28;20210;-76
2022/03/12 12:32:56;;;;;;;9.85;6.07;;;13.20;49.10;;;;;;5034496;28;20239;-75
2022/03/12 12:35:24;;;;;;;8.63;6.50;;;13.20;49.60;;;;;;5030329;28;20211;-75
2022/03/12 12:41:13;;;;;;;11.40;7.20;;;13.20;49.80;;;;;;5030249;28;21125;-74
2022/03/12 12:43:45;;;;;;;8.27;6.32;;;13.30;49.30;;;;;;5026110;28;20231;-74
2022/03/12 12:46:13;;;;;;;8.50;6.25;;;13.30;50.10;;;;;;5029714;28;20207;-76
2022/03/12 12:48:45;;;;;;;9.00;6.45;;;13.40;50.40;;;;;;5026123;28;20216;-74
2022/03/12 12:51:16;;;;;;;9.85;6.70;;;13.50;50.30;;;;;;5037536;28;20224;-74
2022/03/12 12:59:44;;;;;;;9.20;7.00;;;13.60;50.00;;;;;;5006133;28;20216;-74
2022/03/12 13:02:12;;;;;;;13.95;6.70;;;13.50;50.30;;;;;;5008478;28;20208;-73
2022/03/12 13:04:48;;;;;;;9.23;6.95;;;13.50;50.30;;;;;;5013657;28;21310;-74
2022/03/12 13:07:24;;;;;;;14.07;6.93;;;13.50;50.90;;;;;;5012515;28;20224;-73
2022/03/12 13:10:02;;;;;;;9.15;6.97;;;13.50;51.10;;;;;;5008220;28;20712;-76